Time;durP1;ratioP1;P1;durP2;ratioP2;P2;SDS_P1;SDS_P2;PMS_P1;PMS_P2;Temp;Humidity;BMP_temperature;BMP_pressure;BME280_temperature;BME280_humidity;BME280_pressure;Samples;Min_cycle;Max_cycle;Signal;HPM_P1;HPM_P2
2021/12/25 00:01:39;;;;;;;34.67;25.17;;;8.40;1.00;8.60;99292.00;;;;5016252;28;20454;-77
2021/12/25 00:04:09;;;;;;;34.33;26.00;;;8.50;1.00;8.60;99294.00;;;;5014603;28;20446;-77
2021/12/25 00:06:39;;;;;;;30.37;24.10;;;8.50;1.00;8.60;99291.00;;;;5015163;28;20456;-77
2021/12/25 00:09:08;;;;;;;31.87;24.03;;;8.50;1.00;8.60;99282.00;;;;5016849;28;20430;-77
2021/12/25 00:11:36;;;;;;;31.63;24.70;;;8.50;1.00;8.60;99289.00;;;;5030701;28;20540;-77
2021/12/25 00:14:11;;;;;;;31.67;24.50;;;8.50;1.00;8.60;99295.00;;;;5013835;28;20457;-77
2021/12/25 00:16:43;;;;;;;32.00;25.63;;;8.50;1.00;8.60;99284.00;;;;5014574;28;20497;-76
2021/12/25 00:19:12;;;;;;;42.87;25.60;;;8.50;1.00;8.60;99293.00;;;;5015988;28;20442;-76
2021/12/25 00:21:41;;;;;;;31.00;24.67;;;8.50;1.00;8.60;99304.00;;;;5013629;28;20488;-76
2021/12/25 00:24:10;;;;;;;35.13;25.50;;;8.60;1.00;8.60;99322.00;;;;5014490;28;20472;-75
2021/12/25 00:26:47;;;;;;;35.40;25.37;;;8.50;1.00;8.60;99318.00;;;;5014713;28;20445;-76
2021/12/25 00:29:49;;;;;;;32.23;25.03;;;8.50;1.00;8.60;99305.00;;;;5014386;28;20449;-77
2021/12/25 00:32:46;;;;;;;36.63;26.60;;;8.40;1.00;8.60;99284.00;;;;5016105;28;20481;-77
2021/12/25 00:35:16;;;;;;;28.77;24.50;;;8.40;1.00;8.60;99272.00;;;;5015350;28;20476;-77
2021/12/25 00:37:44;;;;;;;31.43;24.90;;;8.40;1.00;8.60;99260.00;;;;5014555;28;20452;-76
2021/12/25 00:40:14;;;;;;;34.53;26.10;;;8.40;1.00;8.50;99264.00;;;;5022607;28;20468;-77
2021/12/25 00:42:42;;;;;;;36.50;26.47;;;8.40;1.00;8.50;99263.00;;;;5031660;28;20436;-75
2021/12/25 00:45:11;;;;;;;32.43;26.17;;;8.30;1.00;8.50;99253.00;;;;5031633;28;20437;-76
2021/12/25 00:47:39;;;;;;;34.10;26.00;;;8.40;1.00;8.50;99268.00;;;;5031256;28;20556;-76
2021/12/25 00:50:09;;;;;;;32.60;25.73;;;8.40;1.00;52.70;160345.00;;;;5047484;28;20499;-76
2021/12/25 00:52:39;;;;;;;32.53;24.87;;;8.40;1.00;8.50;99274.00;;;;5049554;28;20425;-76
2021/12/25 00:55:10;;;;;;;36.17;26.77;;;8.30;1.00;8.50;99277.00;;;;5043399;28;20865;-75
2021/12/25 00:57:39;;;;;;;33.87;25.00;;;8.30;1.00;8.40;99276.00;;;;5039822;28;20453;-77
2021/12/25 01:00:12;;;;;;;34.73;25.40;;;8.30;1.00;8.40;99274.00;;;;5038057;28;20460;-77
2021/12/25 01:02:45;;;;;;;35.57;24.80;;;8.30;1.00;8.40;99268.00;;;;5038284;28;21130;-77
2021/12/25 01:05:17;;;;;;;35.20;25.30;;;8.30;1.00;8.40;99264.00;;;;5036987;28;20976;-76
2021/12/25 01:07:49;;;;;;;33.87;25.50;;;8.30;1.00;8.40;99256.00;;;;5039337;28;20437;-76
2021/12/25 01:10:25;;;;;;;35.57;26.73;;;8.20;1.00;8.40;99252.00;;;;5037759;28;20539;-77
2021/12/25 01:13:02;;;;;;;35.20;25.83;;;8.20;1.00;8.40;99254.00;;;;5022834;28;20536;-76
2021/12/25 01:15:41;;;;;;;33.83;25.70;;;8.20;1.00;8.40;99262.00;;;;5016458;28;20530;-76
2021/12/25 01:18:50;;;;;;;31.67;24.57;;;8.10;1.00;8.40;99257.00;;;;5047484;22;20595;-78
2021/12/25 01:27:59;;;;;;;37.80;27.53;;;8.20;1.00;217.30;160224.00;;;;5015238;28;20871;-77
2021/12/25 01:30:35;;;;;;;35.70;26.90;;;8.10;1.00;52.70;160259.00;;;;5024462;28;20452;-79
2021/12/25 01:33:47;;;;;;;37.70;28.20;;;8.20;1.00;217.30;160224.00;;;;5025969;28;20481;-80
2021/12/25 01:37:06;;;;;;;36.43;26.97;;;8.20;1.00;217.30;160265.00;;;;4986740;28;20445;-78
2021/12/25 01:40:11;;;;;;;31.07;25.00;;;8.10;1.00;217.30;160265.00;;;;5017484;28;20424;-78
2021/12/25 01:49:17;;;;;;;29.10;22.90;;;8.20;1.00;7.90;68102.00;;;;5020375;28;20484;-79
2021/12/25 01:51:48;;;;;;;29.07;23.33;;;8.10;1.00;8.30;99228.00;;;;5035465;28;20504;-79
2021/12/25 01:54:19;;;;;;;28.20;22.50;;;8.20;1.00;52.70;160234.00;;;;5017813;28;20457;-80
2021/12/25 01:56:49;;;;;;;30.60;24.10;;;8.20;1.00;8.40;99267.00;;;;5014830;28;20550;-79
2021/12/25 01:59:18;;;;;;;30.67;23.20;;;8.20;1.00;8.40;99265.00;;;;5030859;28;20942;-79
2021/12/25 02:01:46;;;;;;;29.63;23.03;;;8.20;1.00;8.40;99275.00;;;;5015727;28;20473;-79
2021/12/25 02:04:15;;;;;;;27.43;22.47;;;8.20;1.00;8.40;99270.00;;;;5015927;28;20533;-79
2021/12/25 02:06:45;;;;;;;28.37;22.70;;;8.30;1.00;8.40;99272.00;;;;5054315;28;20517;-77
2021/12/25 02:09:14;;;;;;;25.00;21.53;;;8.30;1.00;8.40;99276.00;;;;5039206;28;20438;-77
2021/12/25 02:11:42;;;;;;;25.30;20.80;;;8.30;1.00;8.40;99272.00;;;;5055403;28;20476;-76
2021/12/25 02:14:12;;;;;;;25.33;21.00;;;8.20;1.00;8.40;99276.00;;;;5039587;28;20449;-77
2021/12/25 02:16:52;;;;;;;25.60;21.80;;;8.20;1.00;8.40;99276.00;;;;5023688;28;20450;-78
2021/12/25 02:19:36;;;;;;;25.90;22.17;;;8.20;1.00;8.40;99268.00;;;;5031631;28;20437;-78
2021/12/25 02:22:09;;;;;;;26.90;21.57;;;8.20;1.00;8.40;99273.00;;;;5015617;28;21002;-77
2021/12/25 02:24:39;;;;;;;26.40;21.67;;;8.20;1.00;52.70;160303.00;;;;5029773;28;20438;-76
2021/12/25 02:27:09;;;;;;;23.63;21.13;;;8.30;1.00;8.40;99273.00;;;;5012974;28;20468;-79
2021/12/25 02:29:37;;;;;;;24.53;21.20;;;8.30;1.00;8.50;99279.00;;;;5029779;28;20442;-77
2021/12/25 02:32:09;;;;;;;26.63;22.30;;;8.30;1.00;8.50;99282.00;;;;5012789;28;20477;-78
2021/12/25 02:34:40;;;;;;;24.40;21.60;;;8.30;1.00;8.50;99278.00;;;;5028907;28;20804;-78
2021/12/25 02:37:10;;;;;;;27.53;21.87;;;8.30;1.00;8.50;99281.00;;;;5012610;28;20466;-77
2021/12/25 02:39:40;;;;;;;25.87;21.70;;;8.40;1.00;8.60;99269.00;;;;5012471;28;20461;-79
2021/12/25 02:42:09;;;;;;;26.80;22.23;;;8.40;1.00;8.60;99272.00;;;;5013955;28;20496;-78
2021/12/25 02:44:39;;;;;;;27.37;21.73;;;8.40;1.00;8.60;99265.00;;;;5012071;28;20457;-78
2021/12/25 02:47:16;;;;;;;26.77;22.50;;;8.50;1.00;8.60;99255.00;;;;5028706;28;20466;-78
2021/12/25 02:49:49;;;;;;;28.10;22.90;;;8.50;1.00;8.60;99264.00;;;;5012805;28;21031;-78
2021/12/25 02:52:19;;;;;;;27.27;23.07;;;8.50;1.00;8.60;99262.00;;;;5013813;28;20473;-78
2021/12/25 02:54:48;;;;;;;29.27;23.70;;;8.50;1.00;8.60;99257.00;;;;5012250;28;20931;-78
2021/12/25 02:57:17;;;;;;;28.70;23.37;;;8.50;1.00;8.60;99256.00;;;;5012258;28;20470;-78
2021/12/25 02:59:46;;;;;;;22.60;20.20;;;8.50;1.00;8.60;99258.00;;;;5012698;28;20481;-78
2021/12/25 03:02:17;;;;;;;28.43;21.17;;;8.60;1.00;8.60;99262.00;;;;5033782;28;20477;-79
2021/12/25 03:04:49;;;;;;;31.53;22.63;;;8.40;1.00;8.50;99254.00;;;;5023304;28;20438;-79
2021/12/25 03:07:19;;;;;;;36.70;23.50;;;8.40;1.00;8.50;99248.00;;;;5018064;28;20524;-79
2021/12/25 03:09:51;;;;;;;33.57;23.80;;;8.40;1.00;8.40;99251.00;;;;5031290;28;20457;-78
2021/12/25 03:12:28;;;;;;;50.70;26.40;;;8.30;1.00;8.40;99248.00;;;;5012731;28;20476;-77
2021/12/25 03:15:06;;;;;;;44.93;27.03;;;8.30;1.00;8.40;99254.00;;;;5028431;28;20473;-78
2021/12/25 03:17:36;;;;;;;42.97;28.07;;;8.20;1.00;8.30;99252.00;;;;5012275;28;20507;-77
2021/12/25 03:20:09;;;;;;;51.90;26.83;;;8.20;1.00;8.30;99268.00;;;;5013223;28;20942;-76
2021/12/25 03:22:40;;;;;;;46.83;26.33;;;8.00;1.00;8.30;99261.00;;;;5013414;28;20422;-77
2021/12/25 03:25:11;;;;;;;47.93;28.40;;;8.00;1.00;8.20;99262.00;;;;5012065;28;20426;-77
2021/12/25 03:27:43;;;;;;;48.33;29.17;;;7.90;1.00;8.20;99251.00;;;;5028321;28;20477;-76
2021/12/25 03:30:15;;;;;;;48.30;29.80;;;7.90;1.00;8.20;99256.00;;;;5012161;28;20985;-77
2021/12/25 03:32:45;;;;;;;52.40;31.40;;;7.80;1.00;8.10;99239.00;;;;5012264;28;20465;-76
2021/12/25 03:35:14;;;;;;;51.20;30.97;;;7.80;1.00;8.10;99241.00;;;;5028222;28;20442;-76
2021/12/25 03:37:44;;;;;;;40.33;28.80;;;7.80;1.00;8.10;99252.00;;;;5028502;28;20458;-78
2021/12/25 03:40:13;;;;;;;51.97;30.80;;;7.80;1.00;8.10;99250.00;;;;5028095;28;20438;-77
2021/12/25 03:42:41;;;;;;;45.67;29.17;;;7.80;1.00;8.00;99246.00;;;;5013098;28;20448;-76
2021/12/25 03:45:10;;;;;;;40.97;27.40;;;7.70;1.00;8.00;99253.00;;;;5012601;28;20438;-76
2021/12/25 03:47:40;;;;;;;37.80;26.73;;;7.70;1.00;8.00;99251.00;;;;5014894;28;20480;-79
2021/12/25 03:53:25;;;;;;;39.53;27.57;;;7.80;1.00;8.00;99257.00;;;;5019114;28;20493;-77
2021/12/25 03:58:39;;;;;;;35.10;26.63;;;7.60;1.00;7.80;99250.00;;;;5023255;28;20804;-78
2021/12/25 04:01:26;;;;;;;30.93;25.47;;;7.60;1.00;7.60;99250.00;;;;5021628;28;20445;-75
2021/12/25 04:04:06;;;;;;;31.33;25.63;;;7.40;1.00;7.50;99244.00;;;;5037526;28;20442;-76
2021/12/25 04:06:43;;;;;;;26.60;23.00;;;7.30;1.00;7.40;99243.00;;;;5036540;28;20440;-77
2021/12/25 04:09:23;;;;;;;27.77;24.23;;;7.10;1.00;7.30;99248.00;;;;5011688;28;20477;-77
2021/12/25 04:11:51;;;;;;;26.07;22.50;;;7.10;1.00;7.20;99237.00;;;;5011613;28;20437;-77
2021/12/25 04:14:20;;;;;;;24.77;20.10;;;7.00;1.00;7.10;99250.00;;;;5027759;28;20534;-77
2021/12/25 04:16:49;;;;;;;23.63;20.50;;;6.80;1.00;7.00;99013.00;;;;5012661;28;20553;-75
2021/12/25 04:19:19;;;;;;;26.80;21.70;;;6.80;1.00;6.90;99238.00;;;;5011630;28;20442;-76
2021/12/25 04:21:53;;;;;;;22.10;18.60;;;6.70;1.00;6.90;99247.00;;;;5028192;28;20453;-76
2021/12/25 04:24:25;;;;;;;21.43;18.53;;;6.50;1.00;6.80;99237.00;;;;5010257;28;20471;-76
2021/12/25 04:26:53;;;;;;;22.37;19.37;;;6.50;1.00;6.80;99261.00;;;;5027834;28;20434;-75
2021/12/25 04:29:37;;;;;;;21.17;18.90;;;6.40;1.00;6.70;99244.00;;;;5011616;28;20456;-76
2021/12/25 05:03:12;;;;;;;17.20;13.43;;;5.80;1.00;6.10;99255.00;;;;5021852;28;20443;-77
2021/12/25 05:05:52;;;;;;;19.17;14.23;;;5.80;1.00;6.10;99268.00;;;;5047260;28;20484;-77
2021/12/25 05:08:30;;;;;;;22.30;12.90;;;5.80;1.00;217.30;159294.00;;;;5031220;28;20469;-77
2021/12/25 05:10:58;;;;;;;18.30;12.53;;;5.70;1.00;6.00;99258.00;;;;5032105;28;20443;-77
2021/12/25 05:13:28;;;;;;;25.40;15.37;;;5.70;1.00;6.00;99247.00;;;;5031016;28;20916;-77
2021/12/25 05:15:56;;;;;;;15.80;12.67;;;5.70;1.00;5.90;99256.00;;;;5047180;28;20495;-77
2021/12/25 05:18:25;;;;;;;18.87;14.77;;;5.60;1.00;5.90;99257.00;;;;5048209;28;21066;-77
2021/12/25 05:20:53;;;;;;;20.17;14.13;;;5.50;1.00;5.90;99260.00;;;;5031174;28;20874;-77
2021/12/25 05:23:22;;;;;;;24.13;16.33;;;5.50;1.00;5.90;99264.00;;;;5031796;28;20452;-78
2021/12/25 05:25:50;;;;;;;23.27;16.70;;;5.50;1.00;5.90;99253.00;;;;5047563;28;20444;-79
2021/12/25 05:28:24;;;;;;;22.07;15.33;;;5.40;1.00;5.70;99244.00;;;;5048334;28;20465;-78
2021/12/25 05:30:56;;;;;;;24.40;17.63;;;5.40;1.00;5.60;99250.00;;;;5031529;28;20432;-78
2021/12/25 05:33:54;;;;;;;19.77;16.80;;;5.30;1.00;5.50;99259.00;;;;5043692;28;20552;-78
2021/12/25 05:36:55;;;;;;;25.77;17.93;;;5.20;1.00;5.50;99252.00;;;;5023255;28;20432;-78
2021/12/25 05:39:49;;;;;;;22.63;17.40;;;5.10;1.00;5.40;99246.00;;;;5037344;28;20555;-78
2021/12/25 05:42:22;;;;;;;24.90;18.00;;;5.00;1.00;5.40;99256.00;;;;5036870;28;20440;-79
2021/12/25 05:44:52;;;;;;;27.10;19.47;;;5.00;1.00;5.40;99242.00;;;;5063267;28;20444;-79
2021/12/25 05:47:45;;;;;;;22.67;18.90;;;5.00;1.00;5.30;99260.00;;;;5053514;28;20457;-79
2021/12/25 05:50:26;;;;;;;22.77;17.47;;;5.00;1.00;5.30;99236.00;;;;5074953;28;20440;-79
2021/12/25 05:52:59;;;;;;;20.50;15.93;;;4.90;1.00;5.30;99262.00;;;;5074312;28;20460;-79
2021/12/25 05:55:46;;;;;;;20.90;16.57;;;4.90;1.00;5.30;99245.00;;;;5059929;28;20420;-79
2021/12/25 05:58:33;;;;;;;19.87;16.23;;;4.90;1.00;5.20;99253.00;;;;5053273;28;20467;-80
2021/12/25 06:01:28;;;;;;;19.90;15.80;;;4.80;1.00;5.10;99264.00;;;;5056170;28;20508;-79
2021/12/25 06:03:58;;;;;;;20.20;15.87;;;4.80;1.00;5.10;99256.00;;;;5057537;28;20441;-79
2021/12/25 06:06:26;;;;;;;18.80;16.00;;;4.70;1.00;5.10;99267.00;;;;5073762;28;20463;-79
2021/12/25 06:08:55;;;;;;;17.10;14.33;;;4.70;1.00;5.10;99270.00;;;;5073395;28;20468;-78
2021/12/25 06:11:24;;;;;;;17.07;14.63;;;4.60;1.00;5.00;99265.00;;;;5056152;28;20441;-79
2021/12/25 06:14:05;;;;;;;17.13;13.67;;;4.60;1.00;5.00;99279.00;;;;5072664;28;20477;-79
2021/12/25 06:16:42;;;;;;;19.27;16.07;;;4.60;1.00;5.10;99278.00;;;;5074597;28;20436;-79
2021/12/25 06:19:25;;;;;;;16.93;14.37;;;4.60;1.00;5.10;99289.00;;;;5074511;28;20439;-79
2021/12/25 06:22:12;;;;;;;18.60;15.07;;;4.70;1.00;5.10;99289.00;;;;5057416;28;20509;-79
2021/12/25 06:25:09;;;;;;;17.33;14.87;;;4.70;1.00;5.00;99289.00;;;;5049079;28;20457;-79
2021/12/25 06:27:58;;;;;;;19.00;15.83;;;4.60;1.00;5.00;99290.00;;;;5073652;28;20476;-79
2021/12/25 06:30:34;;;;;;;19.00;15.23;;;4.60;1.00;5.00;99289.00;;;;5055318;28;20437;-79
2021/12/25 06:33:18;;;;;;;17.03;13.93;;;4.60;1.00;4.90;99300.00;;;;5051723;28;20477;-79
2021/12/25 06:35:51;;;;;;;18.70;14.33;;;4.70;1.00;4.80;99299.00;;;;5036408;28;20480;-77
2021/12/25 06:38:43;;;;;;;18.43;14.07;;;4.50;1.00;4.80;99307.00;;;;5018088;28;20464;-78
2021/12/25 06:41:22;;;;;;;15.20;13.50;;;4.50;1.00;4.80;99297.00;;;;5037808;28;20842;-78
2021/12/25 06:43:51;;;;;;;16.27;11.90;;;4.40;1.00;4.80;99305.00;;;;5053034;28;20524;-78
2021/12/25 06:46:39;;;;;;;15.27;13.37;;;4.30;1.00;4.80;99288.00;;;;5036642;28;20507;-79
2021/12/25 06:49:07;;;;;;;17.97;14.07;;;4.40;1.00;4.70;99308.00;;;;5037369;28;20944;-77
2021/12/25 06:51:57;;;;;;;15.10;12.83;;;4.30;1.00;4.70;99288.00;;;;5026816;28;21039;-78
2021/12/25 06:54:35;;;;;;;13.57;11.60;;;4.20;1.00;4.70;99305.00;;;;5039265;28;20481;-78
2021/12/25 06:57:21;;;;;;;14.37;12.87;;;4.30;1.00;4.60;99319.00;;;;5064827;28;20500;-77
2021/12/25 06:59:50;;;;;;;14.47;12.97;;;4.20;1.00;4.60;99307.00;;;;5063017;28;20775;-78
2021/12/25 07:02:18;;;;;;;14.30;12.80;;;4.20;1.00;4.40;99298.00;;;;5047195;28;20459;-78
2021/12/25 07:05:06;;;;;;;15.77;13.73;;;4.00;1.00;4.40;99307.00;;;;5036981;28;20456;-77
2021/12/25 07:07:54;;;;;;;14.20;12.67;;;4.10;1.00;4.40;99312.00;;;;5043827;28;20507;-78
2021/12/25 07:10:42;;;;;;;13.77;12.33;;;4.00;1.00;4.40;99308.00;;;;5049824;28;20441;-77
2021/12/25 07:13:29;;;;;;;13.97;12.57;;;3.90;1.00;4.40;99317.00;;;;5062875;28;20502;-79
2021/12/25 07:16:20;;;;;;;14.23;12.83;;;4.00;1.00;4.40;99311.00;;;;5076700;28;20535;-77
2021/12/25 07:19:15;;;;;;;15.07;13.47;;;4.00;1.00;4.40;99316.00;;;;5063990;28;20468;-77
2021/12/25 07:22:04;;;;;;;17.30;14.00;;;4.00;1.00;217.30;158556.00;;;;5035804;28;20443;-77
2021/12/25 07:24:56;;;;;;;15.47;13.10;;;3.90;1.00;4.40;67245.00;;;;5055782;28;20452;-78
2021/12/25 07:27:30;;;;;;;14.20;12.70;;;4.00;1.00;4.40;99312.00;;;;5055816;28;20460;-78
2021/12/25 07:29:59;;;;;;;15.70;14.10;;;4.10;1.00;4.50;99300.00;;;;5070875;28;20440;-77
2021/12/25 07:32:27;;;;;;;15.63;13.93;;;4.10;1.00;4.40;99318.00;;;;5058835;28;20971;-78
2021/12/25 07:34:56;;;;;;;15.70;14.00;;;4.10;1.00;4.40;99283.00;;;;5081321;28;20484;-78
2021/12/25 07:37:24;;;;;;;16.33;13.47;;;4.10;1.00;4.50;99317.00;;;;5068220;28;20463;-78
2021/12/25 07:39:53;;;;;;;13.67;12.17;;;4.10;1.00;4.40;99318.00;;;;5052034;28;20512;-78
2021/12/25 07:42:22;;;;;;;13.37;11.97;;;4.00;1.00;4.40;99319.00;;;;5044093;28;20872;-79
2021/12/25 07:45:23;;;;;;;14.23;12.83;;;4.10;1.00;4.40;67230.00;;;;5014484;28;20452;-79
2021/12/25 07:47:58;;;;;;;16.70;14.37;;;3.90;1.00;4.40;99316.00;;;;5037143;28;20465;-78
2021/12/25 07:50:28;;;;;;;14.43;12.90;;;4.20;1.00;4.40;99331.00;;;;5038425;28;20947;-78
2021/12/25 07:52:56;;;;;;;14.23;12.43;;;4.00;1.00;4.30;99347.00;;;;5036464;28;20547;-78
2021/12/25 07:55:27;;;;;;;13.80;12.40;;;3.90;1.00;4.30;99339.00;;;;5044618;28;20476;-78
2021/12/25 07:57:57;;;;;;;15.67;13.03;;;3.90;1.00;4.40;67220.00;;;;5041283;28;20475;-78
2021/12/25 08:00:25;;;;;;;15.23;13.53;;;4.00;1.00;4.30;99349.00;;;;5044510;28;20452;-79
2021/12/25 08:02:55;;;;;;;14.80;13.30;;;4.00;1.00;4.30;99373.00;;;;5055324;28;20480;-78
2021/12/25 08:05:25;;;;;;;15.40;13.63;;;3.90;1.00;4.30;99371.00;;;;5038376;28;20447;-78
2021/12/25 08:07:53;;;;;;;16.73;14.40;;;3.90;1.00;4.20;99384.00;;;;5041261;28;20567;-77
2021/12/25 08:10:21;;;;;;;16.80;14.87;;;3.80;1.00;4.20;99384.00;;;;5046404;28;20522;-78
2021/12/25 08:12:52;;;;;;;15.80;12.87;;;3.80;1.00;4.10;99385.00;;;;5046575;28;20433;-78
2021/12/25 08:15:26;;;;;;;13.20;11.80;;;3.70;1.00;4.00;99113.00;;;;5041991;28;20532;-77
2021/12/25 08:17:57;;;;;;;13.17;11.83;;;3.60;1.00;3.90;99386.00;;;;5041902;28;20980;-77
2021/12/25 08:20:32;;;;;;;13.57;11.63;;;3.60;1.00;3.90;99355.00;;;;5042639;28;20445;-78
2021/12/25 08:23:20;;;;;;;14.30;12.80;;;3.50;1.00;3.80;99324.00;;;;5034624;28;20440;-78
2021/12/25 08:26:17;;;;;;;13.30;11.90;;;3.40;1.00;3.80;99252.00;;;;5033040;28;20481;-78
2021/12/25 08:29:20;;;;;;;13.60;12.20;;;3.50;1.00;3.90;99203.00;;;;5033385;28;20453;-77
2021/12/25 08:32:22;;;;;;;14.33;12.77;;;3.40;1.00;217.30;158282.00;;;;5021668;28;20429;-78
2021/12/25 08:34:51;;;;;;;14.47;12.30;;;3.40;1.00;3.80;99297.00;;;;5033640;28;20488;-77
2021/12/25 08:37:26;;;;;;;14.27;12.40;;;3.40;1.00;3.80;99309.00;;;;5032196;28;20468;-77
2021/12/25 08:39:55;;;;;;;15.90;13.83;;;3.40;1.00;3.70;99295.00;;;;5033802;28;20437;-77
2021/12/25 08:42:24;;;;;;;16.10;12.87;;;3.30;1.00;3.70;99289.00;;;;5040108;28;20957;-78
2021/12/25 08:45:05;;;;;;;15.80;14.10;;;3.30;1.00;3.60;99287.00;;;;5070751;28;20441;-78
2021/12/25 08:47:38;;;;;;;15.50;13.17;;;3.20;1.00;217.30;158215.00;;;;5056025;28;20456;-77
2021/12/25 08:50:11;;;;;;;15.43;13.80;;;3.20;1.00;3.60;99224.00;;;;5054716;28;20440;-77
2021/12/25 08:52:39;;;;;;;14.90;13.40;;;3.20;1.00;3.50;99210.00;;;;5054390;28;20423;-77
2021/12/25 08:55:16;;;;;;;14.87;13.10;;;3.10;1.00;3.60;99224.00;;;;5041425;28;20572;-78
2021/12/25 08:57:44;;;;;;;16.20;14.23;;;3.20;1.00;3.60;99236.00;;;;5059401;28;20471;-76
2021/12/25 09:00:14;;;;;;;14.03;12.53;;;3.20;1.00;3.50;99224.00;;;;5048119;28;20493;-77
2021/12/25 09:02:44;;;;;;;14.20;12.10;;;3.10;1.00;3.40;99226.00;;;;5051657;28;20437;-77
2021/12/25 09:05:13;;;;;;;14.03;12.53;;;3.00;1.00;3.40;99221.00;;;;5059447;28;20548;-78
2021/12/25 09:07:41;;;;;;;13.73;11.80;;;2.90;1.00;3.40;66999.00;;;;5036331;28;20559;-77
2021/12/25 09:10:10;;;;;;;14.63;12.50;;;3.00;1.00;3.30;99269.00;;;;5037103;28;20440;-78
2021/12/25 09:12:41;;;;;;;13.40;12.00;;;2.90;1.00;3.30;99268.00;;;;5038985;28;20441;-79
2021/12/25 09:15:11;;;;;;;9.40;8.27;;;2.90;1.00;3.20;99281.00;;;;5038245;28;20461;-79
2021/12/25 09:17:42;;;;;;;14.43;12.97;;;2.80;1.00;3.20;99272.00;;;;5052709;28;20845;-79
2021/12/25 09:20:13;;;;;;;13.10;11.80;;;2.80;1.00;3.20;99293.00;;;;5037184;28;20795;-79
2021/12/25 09:22:41;;;;;;;13.00;11.60;;;2.80;1.00;3.20;99297.00;;;;5035240;28;20461;-79
2021/12/25 09:25:10;;;;;;;11.20;10.00;;;2.80;1.00;3.10;99290.00;;;;5047457;28;20439;-79
2021/12/25 09:27:38;;;;;;;12.07;10.77;;;2.70;1.00;3.20;99304.00;;;;5050614;28;20469;-79
2021/12/25 09:30:09;;;;;;;11.43;9.93;;;2.70;1.00;3.10;99297.00;;;;5049069;28;20436;-79
2021/12/25 09:32:38;;;;;;;13.17;11.13;;;2.70;1.00;3.20;99317.00;;;;5043925;28;20429;-78
2021/12/25 09:35:07;;;;;;;12.90;11.60;;;2.70;1.00;3.20;99300.00;;;;5040770;28;20484;-79
2021/12/25 09:37:37;;;;;;;13.03;9.93;;;2.80;1.00;3.10;99335.00;;;;5041092;28;20459;-79
2021/12/25 09:40:09;;;;;;;12.37;11.07;;;2.70;1.00;3.20;99336.00;;;;5043625;28;20432;-79
2021/12/25 09:42:40;;;;;;;13.93;11.67;;;2.70;1.00;3.20;99350.00;;;;5044620;28;20432;-78
2021/12/25 09:45:10;;;;;;;12.10;10.57;;;2.80;1.00;3.10;99340.00;;;;5040919;28;20998;-78
2021/12/25 09:47:38;;;;;;;14.43;11.70;;;2.70;1.00;3.10;99356.00;;;;5054778;28;20614;-77
2021/12/25 09:50:10;;;;;;;14.87;12.93;;;2.70;1.00;3.20;99335.00;;;;5044602;28;20445;-78
2021/12/25 09:52:40;;;;;;;13.03;11.67;;;2.80;1.00;217.30;158070.00;;;;5050979;28;20425;-78
2021/12/25 09:55:09;;;;;;;15.50;12.27;;;3.00;1.00;3.30;99344.00;;;;5047140;28;20460;-78
2021/12/25 09:57:39;;;;;;;12.00;10.70;;;2.90;1.00;3.30;99350.00;;;;5036023;28;20818;-77
2021/12/25 10:00:13;;;;;;;13.40;10.87;;;2.90;1.00;3.20;99343.00;;;;5036433;28;20436;-78
2021/12/25 10:02:45;;;;;;;13.77;12.33;;;2.80;1.00;3.20;99350.00;;;;5039736;28;20425;-78
2021/12/25 10:05:26;;;;;;;12.83;10.97;;;2.80;1.00;3.30;99343.00;;;;5045558;28;20432;-79
2021/12/25 10:08:12;;;;;;;11.83;10.60;;;2.90;1.00;3.40;99353.00;;;;5055686;28;20461;-79
2021/12/25 10:10:44;;;;;;;13.00;9.93;;;2.90;1.00;3.40;99341.00;;;;5040448;28;20528;-79
2021/12/25 10:13:27;;;;;;;11.60;10.40;;;3.00;1.00;3.50;99354.00;;;;5040937;28;20437;-79
2021/12/25 10:15:58;;;;;;;12.80;11.17;;;3.00;1.00;3.40;99352.00;;;;5039014;28;20480;-79
2021/12/25 10:18:30;;;;;;;13.30;11.87;;;3.10;1.00;3.40;99367.00;;;;5040840;28;20487;-79
2021/12/25 10:21:18;;;;;;;10.70;9.67;;;3.00;1.00;3.30;99350.00;;;;5040627;28;20433;-79
2021/12/25 10:24:05;;;;;;;13.10;11.60;;;2.90;1.00;3.30;99350.00;;;;5038251;28;20934;-79
2021/12/25 10:26:36;;;;;;;11.00;9.90;;;2.90;1.00;3.20;99356.00;;;;5050554;28;21041;-79
2021/12/25 10:29:18;;;;;;;11.77;10.57;;;2.80;1.00;3.20;99359.00;;;;5035567;28;20837;-79
2021/12/25 10:31:46;;;;;;;11.93;10.73;;;2.70;1.00;3.00;99352.00;;;;5035804;28;20779;-78
2021/12/25 10:34:17;;;;;;;11.97;10.80;;;2.70;1.00;3.00;99356.00;;;;5035230;28;20942;-79
2021/12/25 10:36:47;;;;;;;12.10;10.90;;;2.50;1.00;3.00;99355.00;;;;5035805;28;20499;-78
2021/12/25 10:39:19;;;;;;;11.60;10.33;;;2.50;1.00;3.00;99379.00;;;;5036164;28;20441;-78
2021/12/25 10:41:56;;;;;;;11.00;9.90;;;2.50;1.00;2.90;99374.00;;;;5035642;28;20431;-79
2021/12/25 10:44:27;;;;;;;10.70;9.70;;;2.50;1.00;2.70;99465.00;;;;5035602;28;20443;-78
2021/12/25 10:46:59;;;;;;;11.50;10.30;;;2.30;1.00;2.60;99372.00;;;;5035217;28;20437;-79
2021/12/25 10:49:30;;;;;;;10.00;9.00;;;2.20;1.00;2.60;99387.00;;;;5036273;28;20964;-79
2021/12/25 10:52:15;;;;;;;10.80;9.70;;;2.10;1.00;2.60;99378.00;;;;5035014;28;20491;-78
2021/12/25 10:54:55;;;;;;;10.60;9.60;;;2.20;1.00;2.70;99400.00;;;;5051393;28;20995;-78
2021/12/25 10:57:37;;;;;;;9.20;8.33;;;2.20;1.00;2.60;99377.00;;;;5058938;28;20488;-80
2021/12/25 11:00:12;;;;;;;8.87;7.97;;;2.20;1.00;2.50;99375.00;;;;5039475;28;20430;-78
2021/12/25 11:02:45;;;;;;;10.63;9.63;;;2.10;1.00;2.50;99368.00;;;;5034928;28;20444;-78
2021/12/25 11:05:21;;;;;;;13.10;10.37;;;2.10;1.00;2.60;99375.00;;;;5036294;28;20512;-79
2021/12/25 11:08:05;;;;;;;10.23;9.23;;;2.20;1.00;2.60;99399.00;;;;5037150;28;20504;-78
2021/12/25 11:10:44;;;;;;;10.60;9.53;;;2.10;1.00;2.50;99390.00;;;;5042025;28;20540;-79
2021/12/25 11:13:21;;;;;;;11.03;10.07;;;2.10;1.00;2.50;99377.00;;;;5035036;28;20448;-79
2021/12/25 11:15:52;;;;;;;10.77;9.83;;;2.10;1.00;2.50;99372.00;;;;5050402;28;20905;-79
2021/12/25 11:18:21;;;;;;;12.20;11.00;;;2.10;1.00;2.50;99377.00;;;;5035080;28;20468;-79
2021/12/25 11:20:49;;;;;;;12.87;11.67;;;2.10;1.00;2.60;66825.00;;;;5039443;28;20436;-79
2021/12/25 11:23:18;;;;;;;11.63;10.07;;;2.20;1.00;2.60;66822.00;;;;5039907;28;20433;-78
2021/12/25 11:25:48;;;;;;;11.80;10.70;;;2.10;1.00;2.60;99372.00;;;;5043060;28;20451;-79
2021/12/25 11:28:18;;;;;;;12.80;11.60;;;2.10;1.00;2.60;99373.00;;;;5043106;28;20449;-79
2021/12/25 11:30:50;;;;;;;12.23;11.10;;;2.20;1.00;2.60;99371.00;;;;5040830;28;20488;-79
2021/12/25 11:33:19;;;;;;;14.57;11.90;;;2.10;1.00;2.70;66840.00;;;;5046772;28;20472;-79
2021/12/25 11:35:48;;;;;;;12.57;11.13;;;2.20;1.00;2.70;66852.00;;;;5048835;28;20517;-79
2021/12/25 11:38:16;;;;;;;11.20;10.10;;;2.30;1.00;2.60;99388.00;;;;5045724;28;20461;-80
2021/12/25 11:40:52;;;;;;;11.60;10.50;;;2.20;1.00;2.60;99389.00;;;;5038338;28;20455;-79
2021/12/25 11:43:40;;;;;;;12.43;9.47;;;2.10;1.00;2.50;99384.00;;;;5035409;28;20940;-79
2021/12/25 11:46:09;;;;;;;10.93;9.90;;;2.00;1.00;2.50;99385.00;;;;5036982;28;20437;-79
2021/12/25 11:48:40;;;;;;;11.30;10.10;;;2.00;1.00;2.60;99370.00;;;;5036828;28;20556;-79
2021/12/25 11:51:29;;;;;;;12.73;11.43;;;2.10;1.00;2.70;99376.00;;;;5037847;28;20433;-80
2021/12/25 11:54:13;;;;;;;11.13;10.13;;;2.30;1.00;2.70;99384.00;;;;5036510;28;20437;-78
2021/12/25 11:57:04;;;;;;;12.50;10.83;;;2.20;1.00;2.60;99284.00;;;;5038362;28;20543;-79
2021/12/25 11:59:46;;;;;;;11.40;10.27;;;2.10;1.00;2.40;99391.00;;;;5052837;28;20814;-79
2021/12/25 12:02:39;;;;;;;11.10;10.00;;;2.00;1.00;2.50;66800.00;;;;5053950;28;20947;-79
2021/12/25 12:05:21;;;;;;;11.60;10.40;;;2.10;1.00;2.40;99398.00;;;;5042384;28;20495;-78
2021/12/25 12:08:08;;;;;;;12.47;11.27;;;2.00;1.00;2.50;99389.00;;;;5065667;28;20473;-79
2021/12/25 12:11:00;;;;;;;11.37;10.33;;;2.00;1.00;2.60;99403.00;;;;5043289;28;20445;-78
2021/12/25 12:14:16;;;;;;;10.87;9.97;;;2.10;1.00;2.80;99391.00;;;;5023425;28;20445;-80
2021/12/25 12:16:58;;;;;;;10.53;9.50;;;2.30;1.00;2.80;99381.00;;;;5028558;28;20481;-78
2021/12/25 12:19:50;;;;;;;10.37;9.37;;;2.30;1.00;2.70;99407.00;;;;5027614;28;20512;-79
2021/12/25 12:22:48;;;;;;;11.60;10.57;;;2.30;1.00;2.70;66852.00;;;;5027806;28;20461;-78
2021/12/25 12:25:25;;;;;;;12.20;11.10;;;2.20;1.00;2.70;99398.00;;;;5032036;28;20548;-77
2021/12/25 12:27:58;;;;;;;11.80;10.70;;;2.30;1.00;2.70;99411.00;;;;5019035;28;20977;-78
2021/12/25 12:30:55;;;;;;;11.97;10.87;;;2.20;1.00;2.80;66859.00;;;;5017340;28;20517;-79